createdAt,value
2023-02-27T00:01:15.120Z,-1.46
2023-02-27T00:03:47.715Z,-1.51
2023-02-27T00:06:20.316Z,-1.51
2023-02-27T00:08:52.894Z,-1.56
2023-02-27T00:11:25.982Z,-1.55
2023-02-27T00:13:58.836Z,-1.49
2023-02-27T00:16:31.398Z,-1.54
2023-02-27T00:19:04.824Z,-1.58
2023-02-27T00:21:37.857Z,-1.53
2023-02-27T00:24:11.748Z,-1.58
2023-02-27T00:26:44.372Z,-1.48
2023-02-27T00:29:16.894Z,-1.48
2023-02-27T00:31:49.501Z,-1.56
2023-02-27T00:34:22.089Z,-1.47
2023-02-27T00:36:54.597Z,-1.48
2023-02-27T00:39:27.240Z,-1.50
2023-02-27T00:41:59.851Z,-1.54
2023-02-27T00:44:32.466Z,-1.51
2023-02-27T00:47:05.102Z,-1.58
2023-02-27T00:49:37.724Z,-1.57
2023-02-27T00:52:10.346Z,-1.51
2023-02-27T00:54:42.854Z,-1.47
2023-02-27T00:57:15.643Z,-1.40
2023-02-27T00:59:48.627Z,-1.41
2023-02-27T01:02:21.397Z,-1.39
2023-02-27T01:04:54.034Z,-1.39
2023-02-27T01:07:26.557Z,-1.51
2023-02-27T01:09:59.234Z,-1.33
2023-02-27T01:12:31.915Z,-1.45
2023-02-27T01:15:06.923Z,-1.36
2023-02-27T01:17:40.052Z,-1.36
2023-02-27T01:20:13.439Z,-1.44
2023-02-27T01:22:46.065Z,-1.45
2023-02-27T01:25:18.734Z,-1.44
2023-02-27T01:27:51.259Z,-1.45
2023-02-27T01:30:23.876Z,-1.46
2023-02-27T01:32:56.411Z,-1.55
2023-02-27T01:35:29.101Z,-1.62
2023-02-27T01:38:02.055Z,-1.64
2023-02-27T01:40:40.515Z,-1.61
2023-02-27T01:43:18.835Z,-1.54
2023-02-27T01:45:51.876Z,-1.57
2023-02-27T01:48:31.598Z,-1.58
2023-02-27T01:51:22.536Z,-1.70
2023-02-27T01:53:56.348Z,-1.75
2023-02-27T01:56:32.015Z,-1.79
2023-02-27T01:59:10.648Z,-1.78
2023-02-27T02:01:43.197Z,-1.79
2023-02-27T02:04:29.919Z,-1.82
2023-02-27T02:07:15.300Z,-1.76
2023-02-27T02:09:55.305Z,-1.84
2023-02-27T02:12:36.662Z,-1.83
2023-02-27T02:15:09.920Z,-1.75
2023-02-27T02:18:01.065Z,-1.83
2023-02-27T02:21:33.630Z,-1.84
2023-02-27T02:24:45.633Z,-1.89
2023-02-27T02:27:47.307Z,-1.96
2023-02-27T02:31:03.581Z,-1.98
2023-02-27T02:34:20.933Z,-2.02
2023-02-27T02:37:37.850Z,-2.08
2023-02-27T02:40:44.393Z,-2.05
2023-02-27T02:43:37.933Z,-2.07
2023-02-27T02:46:15.799Z,-2.06
2023-02-27T02:49:22.742Z,-2.19
2023-02-27T02:52:27.108Z,-2.10
2023-02-27T02:55:22.223Z,-2.18
2023-02-27T02:58:43.435Z,-2.21
2023-02-27T03:01:33.632Z,-2.30
2023-02-27T03:04:14.306Z,-2.29
2023-02-27T03:06:54.570Z,-2.23
2023-02-27T03:09:36.966Z,-2.11
2023-02-27T03:12:15.553Z,-2.09
2023-02-27T03:15:18.588Z,-2.11
2023-02-27T03:18:17.763Z,-2.08
2023-02-27T03:21:02.045Z,-2.04
2023-02-27T03:23:47.141Z,-2.12
2023-02-27T03:26:29.660Z,-2.22
2023-02-27T03:29:12.205Z,-2.24
2023-02-27T03:31:53.287Z,-2.17
2023-02-27T03:34:39.601Z,-2.23
2023-02-27T03:37:56.754Z,-2.27
2023-02-27T03:40:44.183Z,-2.30
2023-02-27T03:43:34.919Z,-2.35
2023-02-27T03:46:15.365Z,-2.30
2023-02-27T03:48:48.209Z,-2.31
2023-02-27T03:51:25.073Z,-2.37
2023-02-27T03:54:30.518Z,-2.41
2023-02-27T03:57:08.690Z,-2.43
2023-02-27T03:59:42.043Z,-2.41
2023-02-27T04:02:16.338Z,-2.42
2023-02-27T04:04:48.844Z,-2.53
2023-02-27T04:07:52.444Z,-2.57
2023-02-27T04:10:54.590Z,-2.59
2023-02-27T04:14:23.531Z,-2.59
2023-02-27T04:17:09.450Z,-2.66
2023-02-27T04:20:14.556Z,-2.69
2023-02-27T04:22:54.664Z,-2.68
2023-02-27T04:26:10.504Z,-2.70
2023-02-27T04:29:03.577Z,-2.77
2023-02-27T04:32:35.072Z,-2.85
2023-02-27T04:35:29.384Z,-2.88
2023-02-27T04:38:08.556Z,-2.90
2023-02-27T04:40:58.089Z,-2.91
2023-02-27T04:43:32.748Z,-2.97
2023-02-27T04:46:10.595Z,-2.98
2023-02-27T04:49:09.103Z,-2.99
2023-02-27T04:52:00.995Z,-3.00
2023-02-27T04:54:49.205Z,-2.94
2023-02-27T04:57:34.820Z,-2.95
2023-02-27T05:00:13.749Z,-2.84
2023-02-27T05:02:58.735Z,-2.89
2023-02-27T05:05:35.397Z,-2.84
2023-02-27T05:08:26.204Z,-2.87
2023-02-27T05:11:09.315Z,-2.90
2023-02-27T05:13:51.859Z,-2.95
2023-02-27T05:17:39.872Z,-3.02
2023-02-27T05:20:16.074Z,-3.04
2023-02-27T05:23:12.662Z,-3.07
2023-02-27T05:26:19.817Z,-3.13
2023-02-27T05:29:20.222Z,-3.10
2023-02-27T05:32:05.961Z,-3.13
2023-02-27T05:34:52.770Z,-3.22
2023-02-27T05:37:35.820Z,-3.12
2023-02-27T05:40:14.227Z,-3.12
2023-02-27T05:43:02.132Z,-3.14
2023-02-27T05:45:40.969Z,-3.13
2023-02-27T05:48:22.447Z,-3.16
2023-02-27T05:50:57.934Z,-3.17
2023-02-27T05:53:37.811Z,-3.22
2023-02-27T05:56:16.366Z,-3.20
2023-02-27T05:59:07.979Z,-3.23
2023-02-27T06:01:40.951Z,-3.18
2023-02-27T06:04:13.696Z,-3.16
2023-02-27T06:06:46.206Z,-3.11
2023-02-27T06:09:19.751Z,-3.10
2023-02-27T06:11:52.250Z,-3.16
2023-02-27T06:14:24.745Z,-3.17
2023-02-27T06:16:57.334Z,-3.10
2023-02-27T06:19:29.937Z,-3.05
2023-02-27T06:22:02.463Z,-3.04
2023-02-27T06:24:35.118Z,-3.06
2023-02-27T06:27:07.651Z,-3.09
2023-02-27T06:29:40.342Z,-3.17
2023-02-27T06:32:12.836Z,-3.17
2023-02-27T06:34:45.572Z,-3.09
2023-02-27T06:37:18.249Z,-3.05
2023-02-27T06:39:51.132Z,-3.01
2023-02-27T06:42:23.787Z,-2.99
2023-02-27T06:44:56.302Z,-2.99
2023-02-27T06:47:28.859Z,-3.01
2023-02-27T06:50:02.116Z,-3.02
2023-02-27T06:52:34.649Z,-3.02
2023-02-27T06:55:08.900Z,-3.03
2023-02-27T06:57:42.008Z,-3.04
2023-02-27T07:00:16.040Z,-3.01
2023-02-27T07:02:48.680Z,-2.95
2023-02-27T07:05:21.535Z,-2.87
2023-02-27T07:07:54.069Z,-2.80
2023-02-27T07:10:26.690Z,-2.79
2023-02-27T07:12:59.304Z,-2.77
2023-02-27T07:15:31.787Z,-2.81
2023-02-27T07:18:04.376Z,-2.67
2023-02-27T07:20:37.129Z,-2.56
2023-02-27T07:23:10.657Z,-2.38
2023-02-27T07:25:43.299Z,-2.36
2023-02-27T07:28:16.277Z,-2.18
2023-02-27T07:30:48.848Z,-2.12
2023-02-27T07:33:22.166Z,-2.09
2023-02-27T07:35:54.711Z,-2.07
2023-02-27T07:38:28.853Z,-1.87
2023-02-27T07:41:01.358Z,-1.78
2023-02-27T07:43:33.915Z,-1.72
2023-02-27T07:46:06.512Z,-1.71
2023-02-27T07:48:40.389Z,-1.57
2023-02-27T07:51:13.139Z,-1.68
2023-02-27T07:53:45.709Z,-1.58
2023-02-27T07:56:18.276Z,-1.46
2023-02-27T07:58:50.867Z,-1.34
2023-02-27T08:01:23.461Z,-1.28
2023-02-27T08:03:56.533Z,-1.12
2023-02-27T08:06:30.007Z,-1.10
2023-02-27T08:09:02.969Z,-1.02
2023-02-27T08:11:35.467Z,-0.93
2023-02-27T08:14:08.071Z,-0.78
2023-02-27T08:16:40.876Z,-0.66
2023-02-27T08:19:14.640Z,-0.46
2023-02-27T08:21:47.220Z,-0.47
2023-02-27T08:24:19.800Z,-0.36
2023-02-27T08:26:52.785Z,-0.26
2023-02-27T08:29:26.840Z,-0.32
2023-02-27T08:32:02.180Z,-0.09
2023-02-27T08:34:35.260Z,-0.07
2023-02-27T08:37:07.778Z,0.03
2023-02-27T08:39:40.315Z,0.22
2023-02-27T08:42:12.881Z,0.16
2023-02-27T08:44:45.408Z,0.37
2023-02-27T08:47:18.820Z,0.31
2023-02-27T08:49:51.380Z,0.49
2023-02-27T08:52:24.995Z,0.50
2023-02-27T08:54:58.505Z,0.68
2023-02-27T08:57:31.311Z,0.84
2023-02-27T09:00:08.369Z,0.92
2023-02-27T09:02:42.056Z,1.13
2023-02-27T09:05:14.847Z,1.09
2023-02-27T09:07:47.571Z,1.13
2023-02-27T09:10:20.392Z,1.30
2023-02-27T09:12:53.826Z,1.23
2023-02-27T09:15:27.130Z,1.36
2023-02-27T09:18:03.131Z,1.42
2023-02-27T09:20:36.279Z,1.60
2023-02-27T09:23:08.940Z,1.66
2023-02-27T09:25:41.687Z,1.67
2023-02-27T09:28:15.047Z,1.58
2023-02-27T09:30:47.716Z,1.69
2023-02-27T09:33:20.495Z,1.89
2023-02-27T09:35:53.252Z,2.09
2023-02-27T09:38:26.862Z,2.03
2023-02-27T09:40:59.726Z,2.14
2023-02-27T09:43:49.632Z,2.15
2023-02-27T09:46:25.701Z,2.26
2023-02-27T09:49:01.811Z,2.14
2023-02-27T09:51:34.472Z,2.40
2023-02-27T09:54:07.248Z,2.34
2023-02-27T09:57:03.939Z,2.41
2023-02-27T10:00:00.051Z,2.56
2023-02-27T10:02:53.803Z,2.62
2023-02-27T10:06:11.186Z,2.55
2023-02-27T10:09:42.424Z,2.73
2023-02-27T10:12:42.704Z,2.79
2023-02-27T10:15:35.301Z,2.89
2023-02-27T10:18:28.293Z,2.87
2023-02-27T10:21:14.676Z,2.95
2023-02-27T10:23:59.274Z,2.97
2023-02-27T10:26:40.517Z,2.94
2023-02-27T10:29:32.827Z,3.00
2023-02-27T10:32:33.255Z,3.23
2023-02-27T10:35:16.547Z,3.22
2023-02-27T10:37:56.184Z,3.23
2023-02-27T10:40:30.581Z,3.30
2023-02-27T10:43:06.418Z,3.46
2023-02-27T10:45:39.121Z,3.42
2023-02-27T10:48:13.421Z,3.48
2023-02-27T10:50:52.298Z,3.72
2023-02-27T10:53:28.159Z,3.42
2023-02-27T10:56:06.858Z,3.40
2023-02-27T10:58:39.581Z,3.40
2023-02-27T11:01:13.340Z,3.51
2023-02-27T11:03:46.013Z,3.53
2023-02-27T11:06:26.618Z,3.64
2023-02-27T11:09:29.728Z,3.54
2023-02-27T11:12:27.180Z,3.62
2023-02-27T11:15:22.078Z,3.71
2023-02-27T11:17:55.225Z,3.90
2023-02-27T11:20:43.622Z,3.98
2023-02-27T11:23:25.157Z,4.17
2023-02-27T11:26:38.878Z,4.27
2023-02-27T11:29:25.209Z,4.28
2023-02-27T11:32:17.305Z,4.08
2023-02-27T11:35:01.255Z,4.20
2023-02-27T11:37:41.197Z,3.99
2023-02-27T11:40:21.368Z,3.93
2023-02-27T11:43:06.893Z,4.25
2023-02-27T11:46:04.806Z,4.25
2023-02-27T11:48:50.588Z,4.37
2023-02-27T11:52:21.685Z,4.82
2023-02-27T11:55:09.698Z,5.06
2023-02-27T11:57:48.830Z,5.19
2023-02-27T12:00:37.788Z,5.37
2023-02-27T12:03:45.380Z,5.37
2023-02-27T12:06:29.579Z,5.02
2023-02-27T12:09:32.861Z,5.44
2023-02-27T12:12:18.425Z,5.27
2023-02-27T12:15:31.249Z,5.15
2023-02-27T12:18:12.806Z,5.00
2023-02-27T12:20:57.630Z,4.77
2023-02-27T12:23:55.852Z,5.15
2023-02-27T12:26:43.684Z,5.01
2023-02-27T12:30:05.309Z,5.06
2023-02-27T12:32:50.412Z,4.90
2023-02-27T12:35:36.009Z,4.78
2023-02-27T12:38:14.883Z,4.93
2023-02-27T12:41:27.540Z,5.04
2023-02-27T12:44:44.654Z,5.21
2023-02-27T12:48:13.552Z,5.37
2023-02-27T12:51:11.125Z,5.80
2023-02-27T12:54:33.524Z,5.72
2023-02-27T12:57:32.327Z,5.75
2023-02-27T13:00:20.811Z,5.83
2023-02-27T13:03:20.743Z,6.00
2023-02-27T13:06:10.757Z,5.98
2023-02-27T13:08:58.445Z,5.88
2023-02-27T13:11:54.711Z,5.76
2023-02-27T13:15:01.218Z,5.99
2023-02-27T13:17:48.619Z,5.74
2023-02-27T13:20:21.120Z,5.46
2023-02-27T13:23:19.556Z,5.07
2023-02-27T13:25:56.592Z,5.50
2023-02-27T13:28:31.275Z,5.25
2023-02-27T13:31:19.654Z,5.56
2023-02-27T13:34:26.466Z,5.59
2023-02-27T13:37:09.013Z,5.48
2023-02-27T13:39:46.060Z,5.63
2023-02-27T13:42:27.956Z,5.70
2023-02-27T13:45:04.732Z,5.98
2023-02-27T13:47:40.749Z,5.62
2023-02-27T13:50:21.226Z,5.99
2023-02-27T13:52:54.165Z,5.79
2023-02-27T13:55:37.713Z,5.68
2023-02-27T13:58:19.303Z,5.54
2023-02-27T14:01:01.764Z,5.90
2023-02-27T14:03:34.692Z,5.96
2023-02-27T14:06:11.994Z,6.15
2023-02-27T14:08:52.219Z,6.07
2023-02-27T14:11:39.722Z,6.10
2023-02-27T14:14:36.430Z,6.37
2023-02-27T14:17:14.106Z,6.45
2023-02-27T14:19:57.003Z,5.92
2023-02-27T14:22:38.732Z,6.07
2023-02-27T14:25:33.666Z,5.75
2023-02-27T14:28:26.012Z,5.30
2023-02-27T14:31:32.484Z,5.64
2023-02-27T14:34:06.693Z,5.88
2023-02-27T14:36:54.763Z,6.17
2023-02-27T14:39:35.623Z,6.32
2023-02-27T14:42:19.415Z,6.33
2023-02-27T14:44:53.369Z,6.35
2023-02-27T14:47:37.820Z,6.13
2023-02-27T14:50:41.478Z,6.05
2023-02-27T14:53:26.501Z,6.18
2023-02-27T14:56:01.048Z,5.99
2023-02-27T14:58:33.672Z,5.91
2023-02-27T15:01:09.854Z,5.93
2023-02-27T15:03:49.208Z,5.83
2023-02-27T15:06:35.899Z,5.72
2023-02-27T15:09:08.808Z,5.83
2023-02-27T15:11:43.190Z,5.55
2023-02-27T15:14:34.509Z,5.73
2023-02-27T15:17:27.513Z,5.60
2023-02-27T15:20:00.094Z,5.68
2023-02-27T15:22:39.980Z,5.73
2023-02-27T15:25:39.588Z,6.11
2023-02-27T15:28:39.332Z,6.23
2023-02-27T15:31:22.782Z,5.94
2023-02-27T15:33:56.940Z,5.50
2023-02-27T15:36:34.616Z,5.70
2023-02-27T15:39:23.756Z,5.88
2023-02-27T15:42:00.950Z,6.07
2023-02-27T15:44:41.525Z,5.72
2023-02-27T15:47:33.025Z,5.69
2023-02-27T15:50:08.548Z,5.84
2023-02-27T15:52:50.940Z,5.68
2023-02-27T15:55:32.164Z,5.38
2023-02-27T15:58:19.165Z,5.32
2023-02-27T16:01:02.274Z,5.13
2023-02-27T16:03:44.919Z,5.34
2023-02-27T16:06:28.269Z,4.90
2023-02-27T16:09:25.075Z,5.05
2023-02-27T16:12:24.102Z,4.91
2023-02-27T16:15:27.641Z,4.87
2023-02-27T16:18:06.783Z,4.81
2023-02-27T16:20:54.647Z,5.10
2023-02-27T16:23:33.889Z,5.02
2023-02-27T16:26:30.836Z,5.37
2023-02-27T16:29:20.682Z,5.22
2023-02-27T16:31:57.013Z,5.07
2023-02-27T16:34:45.365Z,5.00
2023-02-27T16:37:29.840Z,5.04
2023-02-27T16:40:17.270Z,5.01
2023-02-27T16:42:51.857Z,5.05
2023-02-27T16:45:28.491Z,5.22
2023-02-27T16:48:01.377Z,5.02
2023-02-27T16:50:41.022Z,4.79
2023-02-27T16:53:13.597Z,4.83
2023-02-27T16:55:46.122Z,4.69
2023-02-27T16:58:18.939Z,4.53
2023-02-27T17:00:51.573Z,4.21
2023-02-27T17:03:24.114Z,4.34
2023-02-27T17:05:57.772Z,4.22
2023-02-27T17:08:31.401Z,4.08
2023-02-27T17:11:05.437Z,3.90
2023-02-27T17:13:38.110Z,3.80
2023-02-27T17:16:12.229Z,3.77
2023-02-27T17:18:44.801Z,3.73
2023-02-27T17:21:17.400Z,3.66
2023-02-27T17:23:49.974Z,3.52
2023-02-27T17:26:22.665Z,3.32
2023-02-27T17:28:56.374Z,3.20
2023-02-27T17:31:29.448Z,3.31
2023-02-27T17:34:05.160Z,3.32
2023-02-27T17:36:38.588Z,3.18
2023-02-27T17:39:14.756Z,2.99
2023-02-27T17:41:47.646Z,2.81
2023-02-27T17:44:20.285Z,2.87
2023-02-27T17:46:53.063Z,2.89
2023-02-27T17:49:25.611Z,2.76
2023-02-27T17:52:00.434Z,2.74
2023-02-27T17:54:34.779Z,2.64
2023-02-27T17:57:09.185Z,2.63
2023-02-27T17:59:43.209Z,2.51
2023-02-27T18:02:15.842Z,2.45
2023-02-27T18:04:48.774Z,2.48
2023-02-27T18:07:21.284Z,2.45
2023-02-27T18:09:53.791Z,2.36
2023-02-27T18:12:26.473Z,2.34
2023-02-27T18:14:59.036Z,2.31
2023-02-27T18:17:31.615Z,2.30
2023-02-27T18:20:05.298Z,2.26
2023-02-27T18:22:38.196Z,2.22
2023-02-27T18:25:11.370Z,2.06
2023-02-27T18:27:43.903Z,1.97
2023-02-27T18:30:19.462Z,1.95
2023-02-27T18:32:56.608Z,1.88
2023-02-27T18:35:29.266Z,1.81
2023-02-27T18:38:03.172Z,1.68
2023-02-27T18:40:35.755Z,1.69
2023-02-27T18:43:10.388Z,1.74
2023-02-27T18:45:43.186Z,1.61
2023-02-27T18:48:15.915Z,1.58
2023-02-27T18:50:48.466Z,1.61
2023-02-27T18:53:20.976Z,1.79
2023-02-27T18:56:03.215Z,1.72
2023-02-27T18:58:36.447Z,1.67
2023-02-27T19:01:23.471Z,1.66
2023-02-27T19:04:03.309Z,1.56
2023-02-27T19:06:42.249Z,1.36
2023-02-27T19:09:16.231Z,1.31
2023-02-27T19:11:48.998Z,1.45
2023-02-27T19:14:21.513Z,1.42
2023-02-27T19:16:56.043Z,1.31
2023-02-27T19:19:28.911Z,1.37
2023-02-27T19:22:01.469Z,1.36
2023-02-27T19:24:34.031Z,1.31
2023-02-27T19:27:07.609Z,1.15
2023-02-27T19:29:40.183Z,1.17
2023-02-27T19:32:14.644Z,1.14
2023-02-27T19:34:47.349Z,1.08
2023-02-27T19:37:19.877Z,0.97
2023-02-27T19:39:52.490Z,1.00
2023-02-27T19:42:25.916Z,1.03
2023-02-27T19:44:58.484Z,1.02
2023-02-27T19:47:31.377Z,1.02
2023-02-27T19:50:04.622Z,0.98
2023-02-27T19:52:37.983Z,0.89
2023-02-27T19:55:11.224Z,0.91
2023-02-27T19:57:43.842Z,0.92
2023-02-27T20:00:17.626Z,0.92
2023-02-27T20:02:50.115Z,0.97
2023-02-27T20:05:24.823Z,0.93
2023-02-27T20:07:57.585Z,0.71
2023-02-27T20:10:30.178Z,0.80
2023-02-27T20:13:02.890Z,0.83
2023-02-27T20:15:36.023Z,0.81
2023-02-27T20:18:08.674Z,0.72
2023-02-27T20:20:41.773Z,0.64
2023-02-27T20:23:15.405Z,0.59
2023-02-27T20:25:47.880Z,0.58
2023-02-27T20:28:21.624Z,0.48
2023-02-27T20:30:54.516Z,0.48
2023-02-27T20:33:27.115Z,0.46
2023-02-27T20:36:07.303Z,0.42
2023-02-27T20:38:41.230Z,0.24
2023-02-27T20:41:22.254Z,0.34
2023-02-27T20:43:54.767Z,0.31
2023-02-27T20:46:30.244Z,0.26
2023-02-27T20:49:05.206Z,0.22
2023-02-27T20:51:40.036Z,0.14
2023-02-27T20:54:19.952Z,0.05
2023-02-27T20:56:54.263Z,-0.01
2023-02-27T20:59:26.873Z,-0.07
2023-02-27T21:01:59.737Z,-0.12
2023-02-27T21:04:47.147Z,-0.20
2023-02-27T21:07:21.706Z,-0.28
2023-02-27T21:09:54.878Z,-0.32
2023-02-27T21:12:27.513Z,-0.39
2023-02-27T21:15:00.074Z,-0.43
2023-02-27T21:17:33.391Z,-0.49
2023-02-27T21:20:07.078Z,-0.52
2023-02-27T21:22:39.619Z,-0.57
2023-02-27T21:25:12.182Z,-0.66
2023-02-27T21:27:44.753Z,-0.70
2023-02-27T21:30:19.327Z,-0.67
2023-02-27T21:32:51.864Z,-0.69
2023-02-27T21:35:24.680Z,-0.70
2023-02-27T21:37:57.223Z,-0.74
2023-02-27T21:40:29.763Z,-0.79
2023-02-27T21:43:02.217Z,-0.77
2023-02-27T21:45:41.432Z,-0.79
2023-02-27T21:48:14.046Z,-0.80
2023-02-27T21:50:47.949Z,-0.83
2023-02-27T21:53:20.456Z,-0.86
2023-02-27T21:55:54.595Z,-0.91
2023-02-27T21:58:27.150Z,-0.95
2023-02-27T22:01:00.334Z,-0.99
2023-02-27T22:03:35.656Z,-1.05
2023-02-27T22:06:09.328Z,-1.08
2023-02-27T22:08:42.290Z,-1.10
2023-02-27T22:11:14.794Z,-1.11
2023-02-27T22:13:47.317Z,-1.10
2023-02-27T22:16:21.091Z,-1.12
2023-02-27T22:18:53.710Z,-1.16
2023-02-27T22:21:28.034Z,-1.14
2023-02-27T22:24:01.026Z,-1.13
2023-02-27T22:26:34.354Z,-1.04
2023-02-27T22:29:07.307Z,-1.04
2023-02-27T22:31:40.123Z,-0.96
2023-02-27T22:34:18.436Z,-0.96
2023-02-27T22:36:52.649Z,-1.01
2023-02-27T22:39:25.581Z,-1.04
2023-02-27T22:41:58.205Z,-1.09
2023-02-27T22:44:30.732Z,-1.13
2023-02-27T22:47:03.304Z,-1.18
2023-02-27T22:49:37.037Z,-1.21
2023-02-27T22:52:10.501Z,-1.26
2023-02-27T22:54:43.310Z,-1.33
2023-02-27T22:57:16.252Z,-1.37
2023-02-27T22:59:52.072Z,-1.45
2023-02-27T23:02:25.162Z,-1.49
2023-02-27T23:04:57.675Z,-1.55
2023-02-27T23:07:30.244Z,-1.59
2023-02-27T23:10:05.006Z,-1.53
2023-02-27T23:12:37.595Z,-1.47
2023-02-27T23:15:10.771Z,-1.40
2023-02-27T23:17:52.890Z,-1.39
2023-02-27T23:20:30.590Z,-1.34
2023-02-27T23:23:05.339Z,-1.39
2023-02-27T23:25:38.911Z,-1.34
2023-02-27T23:28:12.098Z,-1.34
2023-02-27T23:30:44.627Z,-1.40
2023-02-27T23:33:17.169Z,-1.42
2023-02-27T23:35:49.707Z,-1.42
2023-02-27T23:38:22.280Z,-1.44
2023-02-27T23:40:55.245Z,-1.46
2023-02-27T23:43:27.736Z,-1.52
2023-02-27T23:46:14.587Z,-1.58
2023-02-27T23:48:47.925Z,-1.61
2023-02-27T23:51:20.497Z,-1.68
2023-02-27T23:53:52.987Z,-1.75
2023-02-27T23:56:29.465Z,-1.72
2023-02-27T23:59:05.889Z,-1.73
